Atlanta Naval Air Station, Georgia
Current Conditions -  °F | °C
As of 11:58 AM on Saturday 22 Nov 2014 (Local Time) from KMGE Reporting Station
Few Clouds Few Clouds  
Wind Chill: 55°   Ceiling: Unl
Heat Index: 55°   Visibility: 10mi
Dew Point: 22°   Wind: 10mph
Humidity: 28%   Direction: 100°E
Pressure: 30.4"   Gusts: NA
Location:  33.9252°N, 84.5422°W
Report Text: KMGE 221658Z 10009KT 10SM FEW080 13/M06 A3040 RMK AO2A SLP299 T01251056 $
Loading
Personal Weather Stations






























Interactive Weather Map New forecast layout! Learn more

10-Day Weather Forecast

Advertisements
Track Severe Weather on mobile